sensor_id;sensor_type;location;lat;lon;timestamp;pressure;altitude;pressure_sealevel;temperature;humidity
43298;BME280;28892;55.640;37.532;2023-02-07T00:00:50;100445.06;;;-5.23;62.89
43298;BME280;28892;55.640;37.532;2023-02-07T00:03:16;100448.41;;;-4.69;62.07
43298;BME280;28892;55.640;37.532;2023-02-07T00:05:41;100437.16;;;-5.19;62.74
43298;BME280;28892;55.640;37.532;2023-02-07T00:08:07;100447.75;;;-5.26;63.70
43298;BME280;28892;55.640;37.532;2023-02-07T00:10:36;100445.72;;;-5.16;63.84
43298;BME280;28892;55.640;37.532;2023-02-07T00:13:02;100444.66;;;-5.38;64.03
43298;BME280;28892;55.640;37.532;2023-02-07T00:15:28;100444.56;;;-5.08;63.58
43298;BME280;28892;55.640;37.532;2023-02-07T00:17:53;100436.00;;;-4.84;63.01
43298;BME280;28892;55.640;37.532;2023-02-07T00:20:19;100445.00;;;-4.95;62.25
43298;BME280;28892;55.640;37.532;2023-02-07T00:22:45;100436.00;;;-4.84;62.26
43298;BME280;28892;55.640;37.532;2023-02-07T00:25:11;100445.19;;;-4.75;62.27
43298;BME280;28892;55.640;37.532;2023-02-07T00:27:38;100446.09;;;-4.27;60.42
43298;BME280;28892;55.640;37.532;2023-02-07T00:30:04;100446.09;;;-4.27;60.18
43298;BME280;28892;55.640;37.532;2023-02-07T00:32:31;100452.91;;;-4.25;60.48
43298;BME280;28892;55.640;37.532;2023-02-07T00:34:59;100455.91;;;-4.12;60.62
43298;BME280;28892;55.640;37.532;2023-02-07T00:37:26;100459.47;;;-3.92;60.32
43298;BME280;28892;55.640;37.532;2023-02-07T00:39:53;100450.59;;;-3.86;59.82
43298;BME280;28892;55.640;37.532;2023-02-07T00:42:19;100457.13;;;-3.76;59.60
43298;BME280;28892;55.640;37.532;2023-02-07T00:44:45;100460.00;;;-4.06;59.17
43298;BME280;28892;55.640;37.532;2023-02-07T00:47:11;100467.16;;;-4.62;61.23
43298;BME280;28892;55.640;37.532;2023-02-07T00:49:37;100462.00;;;-4.87;62.19
43298;BME280;28892;55.640;37.532;2023-02-07T00:52:03;100462.16;;;-4.92;62.47
43298;BME280;28892;55.640;37.532;2023-02-07T00:54:28;100471.44;;;-5.12;62.75
43298;BME280;28892;55.640;37.532;2023-02-07T00:56:54;100460.44;;;-5.45;63.60
43298;BME280;28892;55.640;37.532;2023-02-07T00:59:20;100469.88;;;-5.44;63.56
43298;BME280;28892;55.640;37.532;2023-02-07T01:01:45;100469.38;;;-5.02;63.43
43298;BME280;28892;55.640;37.532;2023-02-07T01:04:11;100467.44;;;-4.95;61.92
43298;BME280;28892;55.640;37.532;2023-02-07T01:06:37;100466.13;;;-5.07;61.98
43298;BME280;28892;55.640;37.532;2023-02-07T01:09:04;100471.19;;;-4.79;62.01
43298;BME280;28892;55.640;37.532;2023-02-07T01:11:30;100477.00;;;-4.72;61.43
43298;BME280;28892;55.640;37.532;2023-02-07T01:13:58;100476.66;;;-4.86;61.51
43298;BME280;28892;55.640;37.532;2023-02-07T01:16:30;100488.97;;;-5.22;62.81
43298;BME280;28892;55.640;37.532;2023-02-07T01:18:56;100486.47;;;-5.23;63.06
43298;BME280;28892;55.640;37.532;2023-02-07T01:21:25;100482.00;;;-4.93;62.29
43298;BME280;28892;55.640;37.532;2023-02-07T01:23:52;100477.78;;;-4.70;61.89
43298;BME280;28892;55.640;37.532;2023-02-07T01:26:24;100480.84;;;-5.09;62.62
43298;BME280;28892;55.640;37.532;2023-02-07T01:28:52;100487.28;;;-5.23;63.43
43298;BME280;28892;55.640;37.532;2023-02-07T01:31:19;100476.81;;;-5.45;63.04
43298;BME280;28892;55.640;37.532;2023-02-07T01:33:51;100490.84;;;-5.25;63.34
43298;BME280;28892;55.640;37.532;2023-02-07T01:36:17;100484.19;;;-5.33;63.36
43298;BME280;28892;55.640;37.532;2023-02-07T01:38:43;100486.00;;;-5.63;64.01
43298;BME280;28892;55.640;37.532;2023-02-07T01:41:09;100487.09;;;-5.43;63.84
43298;BME280;28892;55.640;37.532;2023-02-07T01:44:05;100486.63;;;-5.85;63.91
43298;BME280;28892;55.640;37.532;2023-02-07T01:46:34;100489.53;;;-5.39;64.01
43298;BME280;28892;55.640;37.532;2023-02-07T01:49:05;100496.38;;;-5.09;62.76
43298;BME280;28892;55.640;37.532;2023-02-07T01:51:33;100499.78;;;-4.82;62.12
43298;BME280;28892;55.640;37.532;2023-02-07T01:54:02;100499.97;;;-4.88;61.47
43298;BME280;28892;55.640;37.532;2023-02-07T01:56:29;100507.25;;;-5.26;62.12
43298;BME280;28892;55.640;37.532;2023-02-07T01:58:59;100499.63;;;-5.59;63.01
43298;BME280;28892;55.640;37.532;2023-02-07T02:01:25;100520.38;;;-5.33;63.57
43298;BME280;28892;55.640;37.532;2023-02-07T02:03:54;100516.25;;;-5.11;62.80
43298;BME280;28892;55.640;37.532;2023-02-07T02:06:22;100524.47;;;-4.98;61.71
43298;BME280;28892;55.640;37.532;2023-02-07T02:08:53;100524.41;;;-4.70;61.50
43298;BME280;28892;55.640;37.532;2023-02-07T02:20:23;100519.94;;;-4.65;61.40
43298;BME280;28892;55.640;37.532;2023-02-07T02:34:14;100550.47;;;-4.49;60.27
43298;BME280;28892;55.640;37.532;2023-02-07T02:39:42;100552.28;;;-4.51;60.49
43298;BME280;28892;55.640;37.532;2023-02-07T02:42:27;100546.00;;;-4.71;60.41
43298;BME280;28892;55.640;37.532;2023-02-07T02:44:59;100558.81;;;-4.93;61.07
43298;BME280;28892;55.640;37.532;2023-02-07T02:47:28;100560.22;;;-5.10;61.31
43298;BME280;28892;55.640;37.532;2023-02-07T02:49:57;100559.19;;;-5.06;61.56
43298;BME280;28892;55.640;37.532;2023-02-07T02:52:22;100554.38;;;-5.16;62.06
43298;BME280;28892;55.640;37.532;2023-02-07T02:54:48;100557.66;;;-5.11;62.01
43298;BME280;28892;55.640;37.532;2023-02-07T02:58:09;100557.16;;;-5.23;62.00
43298;BME280;28892;55.640;37.532;2023-02-07T03:00:45;100562.25;;;-5.20;62.29
43298;BME280;28892;55.640;37.532;2023-02-07T03:03:34;100556.19;;;-5.19;62.92
43298;BME280;28892;55.640;37.532;2023-02-07T03:11:41;100572.44;;;-5.15;61.80
43298;BME280;28892;55.640;37.532;2023-02-07T03:22:35;100581.09;;;-4.62;60.53
43298;BME280;28892;55.640;37.532;2023-02-07T03:25:02;100595.91;;;-4.93;61.09
43298;BME280;28892;55.640;37.532;2023-02-07T03:27:32;100607.03;;;-5.17;61.47
43298;BME280;28892;55.640;37.532;2023-02-07T03:30:01;100608.44;;;-5.07;61.27
43298;BME280;28892;55.640;37.532;2023-02-07T03:32:32;100618.06;;;-5.12;61.28
43298;BME280;28892;55.640;37.532;2023-02-07T03:35:29;100625.81;;;-4.84;61.51
43298;BME280;28892;55.640;37.532;2023-02-07T03:37:59;100626.44;;;-5.04;60.68
43298;BME280;28892;55.640;37.532;2023-02-07T03:40:29;100632.97;;;-5.21;61.17
43298;BME280;28892;55.640;37.532;2023-02-07T03:43:05;100633.16;;;-4.98;60.56
43298;BME280;28892;55.640;37.532;2023-02-07T03:45:32;100639.28;;;-5.01;60.19
43298;BME280;28892;55.640;37.532;2023-02-07T03:47:59;100648.09;;;-5.07;60.65
43298;BME280;28892;55.640;37.532;2023-02-07T03:50:24;100650.72;;;-4.80;60.42
43298;BME280;28892;55.640;37.532;2023-02-07T03:52:50;100652.34;;;-4.77;60.32
43298;BME280;28892;55.640;37.532;2023-02-07T03:55:16;100654.88;;;-4.47;59.86
43298;BME280;28892;55.640;37.532;2023-02-07T03:57:42;100659.59;;;-4.33;58.69
43298;BME280;28892;55.640;37.532;2023-02-07T04:00:09;100673.41;;;-4.07;58.93
43298;BME280;28892;55.640;37.532;2023-02-07T04:02:39;100670.31;;;-3.91;58.72
43298;BME280;28892;55.640;37.532;2023-02-07T04:05:06;100664.19;;;-3.89;59.05
43298;BME280;28892;55.640;37.532;2023-02-07T04:07:31;100669.03;;;-4.05;58.77
43298;BME280;28892;55.640;37.532;2023-02-07T04:09:57;100670.31;;;-3.91;59.19
43298;BME280;28892;55.640;37.532;2023-02-07T04:12:23;100668.50;;;-3.89;58.78
43298;BME280;28892;55.640;37.532;2023-02-07T04:14:48;100681.81;;;-4.26;58.83
43298;BME280;28892;55.640;37.532;2023-02-07T04:17:14;100677.53;;;-4.54;59.87
43298;BME280;28892;55.640;37.532;2023-02-07T04:19:40;100676.56;;;-4.78;60.65
43298;BME280;28892;55.640;37.532;2023-02-07T04:22:06;100678.22;;;-4.75;61.35
43298;BME280;28892;55.640;37.532;2023-02-07T04:24:31;100693.69;;;-4.74;61.77
43298;BME280;28892;55.640;37.532;2023-02-07T04:26:58;100701.56;;;-4.49;61.37
43298;BME280;28892;55.640;37.532;2023-02-07T04:29:23;100703.63;;;-4.33;60.22
43298;BME280;28892;55.640;37.532;2023-02-07T04:31:49;100706.09;;;-4.28;59.72
43298;BME280;28892;55.640;37.532;2023-02-07T04:34:15;100702.75;;;-4.87;61.26
43298;BME280;28892;55.640;37.532;2023-02-07T04:36:40;100712.63;;;-4.72;61.65
43298;BME280;28892;55.640;37.532;2023-02-07T04:39:06;100713.69;;;-4.51;61.51
43298;BME280;28892;55.640;37.532;2023-02-07T04:41:32;100721.69;;;-4.58;61.33
43298;BME280;28892;55.640;37.532;2023-02-07T04:43:58;100717.84;;;-4.73;61.69
43298;BME280;28892;55.640;37.532;2023-02-07T04:46:23;100729.09;;;-4.74;61.73
43298;BME280;28892;55.640;37.532;2023-02-07T04:48:49;100733.16;;;-4.66;61.54
43298;BME280;28892;55.640;37.532;2023-02-07T04:51:15;100731.75;;;-4.76;60.24
43298;BME280;28892;55.640;37.532;2023-02-07T04:53:41;100730.19;;;-4.82;60.49
43298;BME280;28892;55.640;37.532;2023-02-07T04:56:09;100741.78;;;-4.95;59.90
43298;BME280;28892;55.640;37.532;2023-02-07T04:58:36;100739.31;;;-5.00;59.87
43298;BME280;28892;55.640;37.532;2023-02-07T05:01:02;100741.22;;;-5.05;60.69
43298;BME280;28892;55.640;37.532;2023-02-07T05:03:27;100749.50;;;-4.64;60.43
43298;BME280;28892;55.640;37.532;2023-02-07T05:05:53;100751.13;;;-4.32;59.79
43298;BME280;28892;55.640;37.532;2023-02-07T05:08:19;100739.75;;;-4.28;58.55
43298;BME280;28892;55.640;37.532;2023-02-07T05:10:46;100752.06;;;-4.08;58.38
43298;BME280;28892;55.640;37.532;2023-02-07T05:13:15;100756.78;;;-3.93;58.03
43298;BME280;28892;55.640;37.532;2023-02-07T05:15:41;100765.84;;;-4.06;57.60
43298;BME280;28892;55.640;37.532;2023-02-07T05:18:07;100766.94;;;-4.13;58.10
43298;BME280;28892;55.640;37.532;2023-02-07T05:20:35;100773.44;;;-4.28;57.59
43298;BME280;28892;55.640;37.532;2023-02-07T05:23:01;100789.25;;;-4.65;58.80
43298;BME280;28892;55.640;37.532;2023-02-07T05:25:26;100797.28;;;-4.45;58.79
43298;BME280;28892;55.640;37.532;2023-02-07T05:27:52;100785.19;;;-5.05;59.42
43298;BME280;28892;55.640;37.532;2023-02-07T05:30:19;100787.44;;;-4.93;59.67
43298;BME280;28892;55.640;37.532;2023-02-07T05:32:44;100795.59;;;-5.07;60.38
43298;BME280;28892;55.640;37.532;2023-02-07T05:35:38;100797.66;;;-4.88;60.48
43298;BME280;28892;55.640;37.532;2023-02-07T05:38:08;100799.03;;;-5.06;61.40
43298;BME280;28892;55.640;37.532;2023-02-07T05:40:35;100802.81;;;-4.86;61.35
43298;BME280;28892;55.640;37.532;2023-02-07T05:43:02;100816.44;;;-4.81;60.84
43298;BME280;28892;55.640;37.532;2023-02-07T05:45:31;100811.38;;;-5.16;60.20
43298;BME280;28892;55.640;37.532;2023-02-07T05:47:57;100814.56;;;-5.06;59.98
43298;BME280;28892;55.640;37.532;2023-02-07T05:50:23;100804.25;;;-4.76;59.57
43298;BME280;28892;55.640;37.532;2023-02-07T05:53:01;100813.09;;;-4.85;59.62
43298;BME280;28892;55.640;37.532;2023-02-07T05:55:27;100822.91;;;-4.96;61.12
43298;BME280;28892;55.640;37.532;2023-02-07T05:57:53;100811.31;;;-4.53;60.54
43298;BME280;28892;55.640;37.532;2023-02-07T06:00:21;100810.63;;;-4.29;59.88
43298;BME280;28892;55.640;37.532;2023-02-07T06:02:47;100812.28;;;-4.85;60.54
43298;BME280;28892;55.640;37.532;2023-02-07T06:05:17;100816.03;;;-4.97;61.06
43298;BME280;28892;55.640;37.532;2023-02-07T06:07:45;100823.44;;;-4.53;61.11
43298;BME280;28892;55.640;37.532;2023-02-07T06:10:12;100832.63;;;-4.73;60.40
43298;BME280;28892;55.640;37.532;2023-02-07T06:12:38;100829.03;;;-5.32;61.08
43298;BME280;28892;55.640;37.532;2023-02-07T06:15:05;100835.72;;;-5.23;61.15
43298;BME280;28892;55.640;37.532;2023-02-07T06:17:31;100819.91;;;-4.81;60.22
43298;BME280;28892;55.640;37.532;2023-02-07T06:19:57;100836.09;;;-4.74;59.45
43298;BME280;28892;55.640;37.532;2023-02-07T06:22:22;100836.63;;;-4.93;59.23
43298;BME280;28892;55.640;37.532;2023-02-07T06:24:48;100845.47;;;-4.70;59.54
43298;BME280;28892;55.640;37.532;2023-02-07T06:27:14;100855.47;;;-4.57;58.92
43298;BME280;28892;55.640;37.532;2023-02-07T06:29:40;100847.84;;;-4.62;58.71
43298;BME280;28892;55.640;37.532;2023-02-07T06:32:06;100847.22;;;-4.70;58.74
43298;BME280;28892;55.640;37.532;2023-02-07T06:34:31;100840.84;;;-4.58;58.96
43298;BME280;28892;55.640;37.532;2023-02-07T06:36:57;100842.63;;;-5.24;60.27
43298;BME280;28892;55.640;37.532;2023-02-07T06:39:23;100859.28;;;-5.01;60.56
43298;BME280;28892;55.640;37.532;2023-02-07T06:41:49;100880.44;;;-4.55;60.30
43298;BME280;28892;55.640;37.532;2023-02-07T06:44:14;100880.34;;;-4.22;59.36
43298;BME280;28892;55.640;37.532;2023-02-07T06:46:40;100873.81;;;-4.05;57.60
43298;BME280;28892;55.640;37.532;2023-02-07T06:49:06;100879.59;;;-3.97;57.50
43298;BME280;28892;55.640;37.532;2023-02-07T06:51:32;100877.34;;;-3.79;57.49
43298;BME280;28892;55.640;37.532;2023-02-07T06:53:58;100881.25;;;-3.94;56.43
43298;BME280;28892;55.640;37.532;2023-02-07T06:56:25;100874.13;;;-4.16;57.68
43298;BME280;28892;55.640;37.532;2023-02-07T06:58:50;100884.47;;;-3.86;57.73
43298;BME280;28892;55.640;37.532;2023-02-07T07:01:16;100898.84;;;-3.75;56.48
43298;BME280;28892;55.640;37.532;2023-02-07T07:03:45;100874.00;;;-4.11;56.53
43298;BME280;28892;55.640;37.532;2023-02-07T07:06:11;100900.94;;;-4.47;57.62
43298;BME280;28892;55.640;37.532;2023-02-07T07:08:37;100901.44;;;-4.97;58.96
43298;BME280;28892;55.640;37.532;2023-02-07T07:11:03;100905.91;;;-5.37;60.36
43298;BME280;28892;55.640;37.532;2023-02-07T07:13:31;100917.66;;;-5.24;60.07
43298;BME280;28892;55.640;37.532;2023-02-07T07:15:56;100919.13;;;-4.80;59.96
43298;BME280;28892;55.640;37.532;2023-02-07T07:18:22;100915.28;;;-4.35;58.80
43298;BME280;28892;55.640;37.532;2023-02-07T07:20:54;100924.16;;;-4.14;57.84
43298;BME280;28892;55.640;37.532;2023-02-07T07:23:20;100929.78;;;-4.28;56.95
43298;BME280;28892;55.640;37.532;2023-02-07T07:25:46;100930.84;;;-4.35;57.62
43298;BME280;28892;55.640;37.532;2023-02-07T07:28:12;100937.69;;;-4.64;57.87
43298;BME280;28892;55.640;37.532;2023-02-07T07:30:37;100926.53;;;-4.68;58.45
43298;BME280;28892;55.640;37.532;2023-02-07T07:33:03;100929.41;;;-4.45;58.70
43298;BME280;28892;55.640;37.532;2023-02-07T07:35:29;100937.78;;;-4.07;58.08
43298;BME280;28892;55.640;37.532;2023-02-07T07:37:55;100923.72;;;-4.27;57.53
43298;BME280;28892;55.640;37.532;2023-02-07T07:40:20;100929.88;;;-4.63;57.51
43298;BME280;28892;55.640;37.532;2023-02-07T07:42:46;100937.53;;;-4.58;57.78
43298;BME280;28892;55.640;37.532;2023-02-07T07:45:34;100940.25;;;-4.96;58.84
43298;BME280;28892;55.640;37.532;2023-02-07T07:47:59;100933.88;;;-4.84;58.68
43298;BME280;28892;55.640;37.532;2023-02-07T07:50:25;100942.97;;;-5.02;58.45
43298;BME280;28892;55.640;37.532;2023-02-07T07:52:51;100927.28;;;-5.29;58.79
43298;BME280;28892;55.640;37.532;2023-02-07T07:55:17;100920.59;;;-5.05;58.50
43298;BME280;28892;55.640;37.532;2023-02-07T07:57:43;100932.63;;;-5.02;58.61
43298;BME280;28892;55.640;37.532;2023-02-07T08:00:09;100926.06;;;-5.15;59.20
43298;BME280;28892;55.640;37.532;2023-02-07T08:02:43;100940.75;;;-4.83;58.44
43298;BME280;28892;55.640;37.532;2023-02-07T08:05:09;100940.38;;;-5.02;59.03
43298;BME280;28892;55.640;37.532;2023-02-07T08:07:35;100939.28;;;-4.93;58.72
43298;BME280;28892;55.640;37.532;2023-02-07T08:10:02;100934.19;;;-4.63;58.37
43298;BME280;28892;55.640;37.532;2023-02-07T08:12:37;100943.34;;;-4.19;57.59
43298;BME280;28892;55.640;37.532;2023-02-07T08:15:03;100948.38;;;-3.85;56.96
43298;BME280;28892;55.640;37.532;2023-02-07T08:17:30;100948.63;;;-3.37;55.10
43298;BME280;28892;55.640;37.532;2023-02-07T08:19:55;100950.31;;;-3.63;55.00
43298;BME280;28892;55.640;37.532;2023-02-07T08:22:21;100951.19;;;-3.62;55.26
43298;BME280;28892;55.640;37.532;2023-02-07T08:24:47;100959.69;;;-3.87;55.46
43298;BME280;28892;55.640;37.532;2023-02-07T08:27:12;100958.19;;;-3.66;56.14
43298;BME280;28892;55.640;37.532;2023-02-07T08:29:38;100959.16;;;-3.70;55.00
43298;BME280;28892;55.640;37.532;2023-02-07T08:32:04;100960.66;;;-3.61;55.57
43298;BME280;28892;55.640;37.532;2023-02-07T08:34:30;100967.34;;;-3.83;55.65
43298;BME280;28892;55.640;37.532;2023-02-07T08:37:04;100962.94;;;-3.81;55.78
43298;BME280;28892;55.640;37.532;2023-02-07T08:39:30;100956.69;;;-3.73;55.79
43298;BME280;28892;55.640;37.532;2023-02-07T08:41:57;100951.09;;;-3.61;55.24
43298;BME280;28892;55.640;37.532;2023-02-07T08:44:22;100956.47;;;-3.96;55.31
43298;BME280;28892;55.640;37.532;2023-02-07T08:46:48;100971.69;;;-4.45;56.20
43298;BME280;28892;55.640;37.532;2023-02-07T08:49:14;100955.56;;;-4.55;56.95
43298;BME280;28892;55.640;37.532;2023-02-07T08:51:40;100952.69;;;-4.44;56.62
43298;BME280;28892;55.640;37.532;2023-02-07T08:54:07;100956.78;;;-3.48;55.84
43298;BME280;28892;55.640;37.532;2023-02-07T08:56:34;100949.31;;;-3.30;55.13
43298;BME280;28892;55.640;37.532;2023-02-07T08:58:59;100957.78;;;-3.25;54.40
43298;BME280;28892;55.640;37.532;2023-02-07T09:01:28;100958.63;;;-3.25;54.23
43298;BME280;28892;55.640;37.532;2023-02-07T09:03:55;100953.38;;;-3.23;54.15
43298;BME280;28892;55.640;37.532;2023-02-07T09:06:24;100951.19;;;-3.62;54.58
43298;BME280;28892;55.640;37.532;2023-02-07T09:08:51;100948.63;;;-3.93;55.25
43298;BME280;28892;55.640;37.532;2023-02-07T09:15:39;100959.50;;;-4.73;57.33
43298;BME280;28892;55.640;37.532;2023-02-07T09:18:35;100969.97;;;-4.78;58.08
43298;BME280;28892;55.640;37.532;2023-02-07T09:30:37;100953.44;;;-4.10;55.91
43298;BME280;28892;55.640;37.532;2023-02-07T09:36:36;100966.94;;;-3.42;55.55
43298;BME280;28892;55.640;37.532;2023-02-07T09:39:04;100976.19;;;-3.06;54.22
43298;BME280;28892;55.640;37.532;2023-02-07T09:47:23;100979.59;;;-4.18;55.62
43298;BME280;28892;55.640;37.532;2023-02-07T09:50:00;100992.22;;;-4.07;57.71
43298;BME280;28892;55.640;37.532;2023-02-07T09:52:50;100985.97;;;-3.41;57.01
43298;BME280;28892;55.640;37.532;2023-02-07T10:01:00;100978.78;;;-3.33;54.58
43298;BME280;28892;55.640;37.532;2023-02-07T10:03:31;100972.69;;;-3.32;54.53
43298;BME280;28892;55.640;37.532;2023-02-07T10:06:09;100985.03;;;-3.67;54.66
43298;BME280;28892;55.640;37.532;2023-02-07T10:08:39;100989.47;;;-3.71;54.58
43298;BME280;28892;55.640;37.532;2023-02-07T10:11:25;100995.81;;;-3.53;55.49
43298;BME280;28892;55.640;37.532;2023-02-07T10:25:03;100999.09;;;-2.41;52.76
43298;BME280;28892;55.640;37.532;2023-02-07T10:30:26;101003.22;;;-2.59;52.46
43298;BME280;28892;55.640;37.532;2023-02-07T10:33:15;100994.94;;;-2.71;52.90
43298;BME280;28892;55.640;37.532;2023-02-07T10:35:41;100993.81;;;-2.63;52.97
43298;BME280;28892;55.640;37.532;2023-02-07T10:38:32;100992.41;;;-2.23;53.03
43298;BME280;28892;55.640;37.532;2023-02-07T10:41:11;100986.50;;;-2.28;52.09
43298;BME280;28892;55.640;37.532;2023-02-07T10:43:46;100986.16;;;-2.43;52.73
43298;BME280;28892;55.640;37.532;2023-02-07T10:46:17;100993.00;;;-2.65;52.30
43298;BME280;28892;55.640;37.532;2023-02-07T10:48:57;100987.94;;;-2.69;52.62
43298;BME280;28892;55.640;37.532;2023-02-07T10:51:32;100989.41;;;-2.61;52.57
43298;BME280;28892;55.640;37.532;2023-02-07T10:54:13;100992.09;;;-2.39;52.86
43298;BME280;28892;55.640;37.532;2023-02-07T10:56:54;100998.09;;;-2.37;52.22
43298;BME280;28892;55.640;37.532;2023-02-07T10:59:41;100992.06;;;-2.14;52.77
43298;BME280;28892;55.640;37.532;2023-02-07T11:02:37;100996.13;;;-2.06;51.57
43298;BME280;28892;55.640;37.532;2023-02-07T11:08:01;100989.97;;;-3.31;53.50
43298;BME280;28892;55.640;37.532;2023-02-07T11:10:32;101001.50;;;-3.13;53.29
43298;BME280;28892;55.640;37.532;2023-02-07T11:13:00;100991.72;;;-3.60;54.46
43298;BME280;28892;55.640;37.532;2023-02-07T11:15:38;100991.84;;;-3.36;53.99
43298;BME280;28892;55.640;37.532;2023-02-07T11:20:26;101004.53;;;-3.27;54.12
43298;BME280;28892;55.640;37.532;2023-02-07T11:21:56;101009.69;;;-3.54;53.96
43298;BME280;28892;55.640;37.532;2023-02-07T11:24:36;101011.81;;;-3.67;55.65
43298;BME280;28892;55.640;37.532;2023-02-07T11:27:13;100995.47;;;-3.70;55.09
43298;BME280;28892;55.640;37.532;2023-02-07T11:30:05;101012.00;;;-3.44;54.88
43298;BME280;28892;55.640;37.532;2023-02-07T11:32:39;101016.50;;;-3.80;55.84
43298;BME280;28892;55.640;37.532;2023-02-07T11:35:07;101017.13;;;-4.01;56.18
43298;BME280;28892;55.640;37.532;2023-02-07T11:37:46;101007.25;;;-3.58;56.01
43298;BME280;28892;55.640;37.532;2023-02-07T11:40:36;101024.53;;;-3.02;55.07
43298;BME280;28892;55.640;37.532;2023-02-07T11:45:35;101020.88;;;-2.96;54.09
43298;BME280;28892;55.640;37.532;2023-02-07T11:48:03;101008.31;;;-3.09;54.16
43298;BME280;28892;55.640;37.532;2023-02-07T11:50:37;101015.84;;;-3.01;54.18
43298;BME280;28892;55.640;37.532;2023-02-07T11:55:53;101015.63;;;-2.95;54.30
43298;BME280;28892;55.640;37.532;2023-02-07T11:58:37;101003.44;;;-2.67;54.21
43298;BME280;28892;55.640;37.532;2023-02-07T12:01:06;101017.56;;;-2.74;53.47
43298;BME280;28892;55.640;37.532;2023-02-07T12:03:40;101017.16;;;-2.89;54.15
43298;BME280;28892;55.640;37.532;2023-02-07T12:06:14;101018.41;;;-2.74;53.24
43298;BME280;28892;55.640;37.532;2023-02-07T12:08:45;101017.53;;;-3.00;52.79
43298;BME280;28892;55.640;37.532;2023-02-07T12:11:18;101019.88;;;-2.92;52.91
43298;BME280;28892;55.640;37.532;2023-02-07T12:13:51;101023.56;;;-2.72;52.89
43298;BME280;28892;55.640;37.532;2023-02-07T12:16:21;101025.81;;;-2.88;51.97
43298;BME280;28892;55.640;37.532;2023-02-07T12:18:50;101019.84;;;-3.46;53.13
43298;BME280;28892;55.640;37.532;2023-02-07T12:22:20;101028.47;;;-3.45;53.82
43298;BME280;28892;55.640;37.532;2023-02-07T12:24:38;101017.19;;;-3.44;54.40
43298;BME280;28892;55.640;37.532;2023-02-07T12:27:15;101020.38;;;-3.36;53.94
43298;BME280;28892;55.640;37.532;2023-02-07T12:34:53;101037.75;;;-3.38;53.67
43298;BME280;28892;55.640;37.532;2023-02-07T12:37:22;101039.97;;;-3.54;53.54
43298;BME280;28892;55.640;37.532;2023-02-07T12:43:04;101023.84;;;-3.64;54.27
43298;BME280;28892;55.640;37.532;2023-02-07T12:56:38;101049.44;;;-2.96;53.67
43298;BME280;28892;55.640;37.532;2023-02-07T13:05:36;101061.44;;;-3.49;53.45
43298;BME280;28892;55.640;37.532;2023-02-07T13:19:37;101057.41;;;-3.02;53.67
43298;BME280;28892;55.640;37.532;2023-02-07T13:24:50;101046.09;;;-3.00;52.21
43298;BME280;28892;55.640;37.532;2023-02-07T13:30:30;101036.31;;;-3.20;52.35
43298;BME280;28892;55.640;37.532;2023-02-07T13:33:02;101037.38;;;-3.26;53.70
43298;BME280;28892;55.640;37.532;2023-02-07T13:35:33;101039.81;;;-3.21;53.75
43298;BME280;28892;55.640;37.532;2023-02-07T13:38:17;101046.63;;;-3.17;53.38
43298;BME280;28892;55.640;37.532;2023-02-07T13:46:10;101053.00;;;-3.56;54.23
43298;BME280;28892;55.640;37.532;2023-02-07T13:48:50;101044.63;;;-3.66;54.07
43298;BME280;28892;55.640;37.532;2023-02-07T13:51:26;101047.81;;;-3.86;54.74
43298;BME280;28892;55.640;37.532;2023-02-07T13:56:59;101056.50;;;-3.87;54.72
43298;BME280;28892;55.640;37.532;2023-02-07T14:00:13;101057.94;;;-3.76;55.25
43298;BME280;28892;55.640;37.532;2023-02-07T14:02:44;101043.41;;;-3.52;54.85
43298;BME280;28892;55.640;37.532;2023-02-07T14:05:22;101047.69;;;-3.23;54.42
43298;BME280;28892;55.640;37.532;2023-02-07T14:07:54;101055.03;;;-3.09;53.78
43298;BME280;28892;55.640;37.532;2023-02-07T14:10:48;101057.16;;;-2.95;53.40
43298;BME280;28892;55.640;37.532;2023-02-07T14:13:32;101055.50;;;-3.24;53.39
43298;BME280;28892;55.640;37.532;2023-02-07T14:21:05;101059.91;;;-3.86;55.43
43298;BME280;28892;55.640;37.532;2023-02-07T14:24:17;101057.84;;;-3.45;54.92
43298;BME280;28892;55.640;37.532;2023-02-07T14:32:00;101063.31;;;-3.54;54.86
43298;BME280;28892;55.640;37.532;2023-02-07T14:43:06;101082.31;;;-3.52;53.19
43298;BME280;28892;55.640;37.532;2023-02-07T14:54:02;101098.31;;;-3.38;54.34
43298;BME280;28892;55.640;37.532;2023-02-07T14:59:08;101084.09;;;-3.26;53.91
43298;BME280;28892;55.640;37.532;2023-02-07T15:01:41;101084.09;;;-3.26;53.72
43298;BME280;28892;55.640;37.532;2023-02-07T15:04:09;101093.34;;;-3.45;53.50
43298;BME280;28892;55.640;37.532;2023-02-07T15:06:39;101095.72;;;-3.38;54.26
43298;BME280;28892;55.640;37.532;2023-02-07T15:09:16;101093.41;;;-3.18;54.09
43298;BME280;28892;55.640;37.532;2023-02-07T15:11:46;101080.47;;;-3.20;53.70
43298;BME280;28892;55.640;37.532;2023-02-07T15:14:26;101101.00;;;-3.12;53.65
43298;BME280;28892;55.640;37.532;2023-02-07T15:16:53;101112.88;;;-3.33;52.98
43298;BME280;28892;55.640;37.532;2023-02-07T15:21:50;101112.34;;;-3.15;53.54
43298;BME280;28892;55.640;37.532;2023-02-07T15:24:39;101118.28;;;-3.11;53.75
43298;BME280;28892;55.640;37.532;2023-02-07T15:27:19;101114.81;;;-3.12;53.90
43298;BME280;28892;55.640;37.532;2023-02-07T15:30:04;101105.44;;;-3.16;53.61
43298;BME280;28892;55.640;37.532;2023-02-07T15:32:40;101095.47;;;-3.30;53.46
43298;BME280;28892;55.640;37.532;2023-02-07T15:35:15;101119.63;;;-3.28;53.75
43298;BME280;28892;55.640;37.532;2023-02-07T15:37:46;101106.66;;;-3.28;53.83
43298;BME280;28892;55.640;37.532;2023-02-07T15:40:22;101096.84;;;-3.18;53.74
43298;BME280;28892;55.640;37.532;2023-02-07T15:42:59;101106.97;;;-3.09;53.58
43298;BME280;28892;55.640;37.532;2023-02-07T15:45:38;101116.38;;;-3.06;53.48
43298;BME280;28892;55.640;37.532;2023-02-07T15:48:54;101104.75;;;-2.92;53.94
43298;BME280;28892;55.640;37.532;2023-02-07T15:51:35;101110.09;;;-2.99;53.38